sensor_id;sensor_type;location;lat;lon;timestamp;pressure;altitude;pressure_sealevel;temperature;humidity
7614;BME280;3848;42.016;23.098;2022-12-24T00:01:44;97167.41;;;1.40;100.00
7614;BME280;3848;42.016;23.098;2022-12-24T00:04:10;97178.34;;;1.44;100.00
7614;BME280;3848;42.016;23.098;2022-12-24T00:06:38;97189.34;;;1.47;100.00
7614;BME280;3848;42.016;23.098;2022-12-24T00:09:05;97185.78;;;1.41;100.00
7614;BME280;3848;42.016;23.098;2022-12-24T00:11:32;97200.03;;;1.43;100.00
7614;BME280;3848;42.016;23.098;2022-12-24T00:13:59;97198.25;;;1.39;100.00
7614;BME280;3848;42.016;23.098;2022-12-24T00:16:26;97193.13;;;1.35;100.00
7614;BME280;3848;42.016;23.098;2022-12-24T00:18:52;97204.31;;;1.46;100.00
7614;BME280;3848;42.016;23.098;2022-12-24T00:21:19;97202.53;;;1.43;100.00
7614;BME280;3848;42.016;23.098;2022-12-24T00:23:47;97200.19;;;1.48;100.00
7614;BME280;3848;42.016;23.098;2022-12-24T00:26:14;97209.13;;;1.40;100.00
7614;BME280;3848;42.016;23.098;2022-12-24T00:28:41;97200.16;;;1.18;100.00
7614;BME280;3848;42.016;23.098;2022-12-24T00:31:09;97200.22;;;0.93;100.00
7614;BME280;3848;42.016;23.098;2022-12-24T00:33:37;97208.06;;;0.76;100.00
7614;BME280;3848;42.016;23.098;2022-12-24T00:36:04;97212.72;;;0.66;100.00
7614;BME280;3848;42.016;23.098;2022-12-24T00:38:32;97186.16;;;0.42;100.00
7614;BME280;3848;42.016;23.098;2022-12-24T00:41:01;97210.44;;;0.46;100.00
7614;BME280;3848;42.016;23.098;2022-12-24T00:43:28;97193.44;;;0.36;100.00
7614;BME280;3848;42.016;23.098;2022-12-24T00:45:55;97190.94;;;0.36;100.00
7614;BME280;3848;42.016;23.098;2022-12-24T00:48:22;97193.53;;;0.39;100.00
7614;BME280;3848;42.016;23.098;2022-12-24T00:50:50;97202.72;;;0.40;100.00
7614;BME280;3848;42.016;23.098;2022-12-24T00:53:17;97190.59;;;0.25;100.00
7614;BME280;3848;42.016;23.098;2022-12-24T00:55:44;97195.47;;;0.21;100.00
7614;BME280;3848;42.016;23.098;2022-12-24T00:58:12;97188.00;;;0.22;100.00
7614;BME280;3848;42.016;23.098;2022-12-24T01:00:39;97198.34;;;0.33;100.00
7614;BME280;3848;42.016;23.098;2022-12-24T01:03:06;97193.47;;;0.38;100.00
7614;BME280;3848;42.016;23.098;2022-12-24T01:05:33;97186.16;;;0.42;100.00
7614;BME280;3848;42.016;23.098;2022-12-24T01:07:58;97176.25;;;0.45;100.00
7614;BME280;3848;42.016;23.098;2022-12-24T01:10:25;97177.38;;;0.55;100.00
7614;BME280;3848;42.016;23.098;2022-12-24T01:12:52;97177.38;;;0.55;100.00
7614;BME280;3848;42.016;23.098;2022-12-24T01:15:23;97169.69;;;0.49;100.00
7614;BME280;3848;42.016;23.098;2022-12-24T01:17:52;97193.38;;;0.60;100.00
7614;BME280;3848;42.016;23.098;2022-12-24T01:20:19;97180.69;;;0.54;100.00
7614;BME280;3848;42.016;23.098;2022-12-24T01:22:46;97188.56;;;0.66;100.00
7614;BME280;3848;42.016;23.098;2022-12-24T01:25:14;97187.03;;;0.70;100.00
7614;BME280;3848;42.016;23.098;2022-12-24T01:27:41;97168.53;;;0.65;100.00
7614;BME280;3848;42.016;23.098;2022-12-24T01:30:10;97180.63;;;0.79;100.00
7614;BME280;3848;42.016;23.098;2022-12-24T01:32:40;97180.72;;;0.82;100.00
7614;BME280;3848;42.016;23.098;2022-12-24T01:35:08;97184.69;;;0.76;100.00
7614;BME280;3848;42.016;23.098;2022-12-24T01:37:35;97173.53;;;0.65;100.00
7614;BME280;3848;42.016;23.098;2022-12-24T01:40:03;97172.47;;;0.58;100.00
7614;BME280;3848;42.016;23.098;2022-12-24T01:42:48;97175.53;;;0.49;100.00
7614;BME280;3848;42.016;23.098;2022-12-24T01:45:45;97181.16;;;0.42;100.00
7614;BME280;3848;42.016;23.098;2022-12-24T01:48:21;97189.34;;;0.38;100.00
7614;BME280;3848;42.016;23.098;2022-12-24T01:50:51;97184.38;;;0.40;100.00
7614;BME280;3848;42.016;23.098;2022-12-24T01:53:20;97188.53;;;0.39;100.00
7614;BME280;3848;42.016;23.098;2022-12-24T01:55:48;97184.56;;;0.44;100.00
7614;BME280;3848;42.016;23.098;2022-12-24T02:01:02;97193.03;;;0.49;100.00
7614;BME280;3848;42.016;23.098;2022-12-24T02:03:31;97179.84;;;0.53;100.00
7614;BME280;3848;42.016;23.098;2022-12-24T02:05:59;97189.06;;;0.56;100.00
7614;BME280;3848;42.016;23.098;2022-12-24T02:08:26;97173.13;;;0.52;100.00
7614;BME280;3848;42.016;23.098;2022-12-24T02:11:12;97197.81;;;0.69;100.00
7614;BME280;3848;42.016;23.098;2022-12-24T02:13:40;97202.06;;;0.71;100.00
7614;BME280;3848;42.016;23.098;2022-12-24T02:16:15;97181.84;;;0.64;100.00
7614;BME280;3848;42.016;23.098;2022-12-24T02:18:54;97190.22;;;0.66;100.00
7614;BME280;3848;42.016;23.098;2022-12-24T02:21:53;97186.63;;;0.57;100.00
7614;BME280;3848;42.016;23.098;2022-12-24T02:24:35;97188.03;;;0.49;100.00
7614;BME280;3848;42.016;23.098;2022-12-24T02:27:34;97199.06;;;0.56;100.00
7614;BME280;3848;42.016;23.098;2022-12-24T02:30:15;97193.53;;;0.65;100.00
7614;BME280;3848;42.016;23.098;2022-12-24T02:32:58;97206.13;;;0.68;100.00
7614;BME280;3848;42.016;23.098;2022-12-24T02:35:36;97202.91;;;0.72;100.00
7614;BME280;3848;42.016;23.098;2022-12-24T02:38:12;97152.31;;;0.26;100.00
7614;BME280;3848;42.016;23.098;2022-12-24T02:40:45;97214.41;;;0.41;100.00
7614;BME280;3848;42.016;23.098;2022-12-24T02:43:16;97202.25;;;0.25;100.00
7614;BME280;3848;42.016;23.098;2022-12-24T02:45:48;97201.78;;;0.11;100.00
7614;BME280;3848;42.016;23.098;2022-12-24T02:48:18;97190.41;;;-0.05;100.00
7614;BME280;3848;42.016;23.098;2022-12-24T02:50:57;97193.25;;;-0.19;100.00
7614;BME280;3848;42.016;23.098;2022-12-24T02:53:24;97196.91;;;-0.34;100.00
7614;BME280;3848;42.016;23.098;2022-12-24T02:56:02;97178.63;;;-0.56;100.00
7614;BME280;3848;42.016;23.098;2022-12-24T02:58:38;97191.44;;;-0.47;100.00
7614;BME280;3848;42.016;23.098;2022-12-24T03:01:16;97184.94;;;-0.42;100.00
7614;BME280;3848;42.016;23.098;2022-12-24T03:03:59;97180.09;;;-0.39;100.00
7614;BME280;3848;42.016;23.098;2022-12-24T03:06:34;97170.22;;;-0.36;100.00
7614;BME280;3848;42.016;23.098;2022-12-24T03:09:09;97174.56;;;-0.31;100.00
7614;BME280;3848;42.016;23.098;2022-12-24T03:11:44;97171.91;;;-0.35;100.00
7614;BME280;3848;42.016;23.098;2022-12-24T03:14:15;97179.38;;;-0.35;100.00
7614;BME280;3848;42.016;23.098;2022-12-24T03:16:45;97167.81;;;-0.33;100.00
7614;BME280;3848;42.016;23.098;2022-12-24T03:19:12;97169.66;;;-0.27;100.00
7614;BME280;3848;42.016;23.098;2022-12-24T03:21:40;97177.25;;;-0.24;100.00
7614;BME280;3848;42.016;23.098;2022-12-24T03:24:10;97177.44;;;-0.20;100.00
7614;BME280;3848;42.016;23.098;2022-12-24T03:26:38;97165.94;;;-0.15;100.00
7614;BME280;3848;42.016;23.098;2022-12-24T03:29:05;97163.69;;;-0.07;100.00
7614;BME280;3848;42.016;23.098;2022-12-24T03:31:41;97108.91;;;-0.28;100.00
7614;BME280;3848;42.016;23.098;2022-12-24T03:34:10;97145.19;;;0.12;100.00
7614;BME280;3848;42.016;23.098;2022-12-24T03:36:37;97119.88;;;0.01;100.00
7614;BME280;3848;42.016;23.098;2022-12-24T03:39:04;97142.88;;;0.18;100.00
7614;BME280;3848;42.016;23.098;2022-12-24T03:41:31;97144.63;;;0.20;100.00
7614;BME280;3848;42.016;23.098;2022-12-24T03:43:58;97142.19;;;0.22;100.00
7614;BME280;3848;42.016;23.098;2022-12-24T03:46:25;97139.69;;;0.22;100.00
7614;BME280;3848;42.016;23.098;2022-12-24T03:48:51;97127.22;;;0.22;100.00
7614;BME280;3848;42.016;23.098;2022-12-24T03:51:22;97128.19;;;0.27;100.00
7614;BME280;3848;42.016;23.098;2022-12-24T03:53:51;97122.56;;;0.34;100.00
7614;BME280;3848;42.016;23.098;2022-12-24T03:56:17;97131.19;;;0.42;100.00
7614;BME280;3848;42.016;23.098;2022-12-24T03:58:44;97131.19;;;0.42;100.00
7614;BME280;3848;42.016;23.098;2022-12-24T04:01:11;97121.94;;;0.41;100.00
7614;BME280;3848;42.016;23.098;2022-12-24T04:03:38;97121.94;;;0.41;100.00
7614;BME280;3848;42.016;23.098;2022-12-24T04:06:07;97116.03;;;0.38;100.00
7614;BME280;3848;42.016;23.098;2022-12-24T04:08:36;97127.88;;;0.43;100.00
7614;BME280;3848;42.016;23.098;2022-12-24T04:11:03;97135.16;;;0.37;100.00
7614;BME280;3848;42.016;23.098;2022-12-24T04:13:30;97126.41;;;0.23;100.00
7614;BME280;3848;42.016;23.098;2022-12-24T04:15:57;97140.81;;;0.32;100.00
7614;BME280;3848;42.016;23.098;2022-12-24T04:18:24;97145.81;;;0.32;100.00
7614;BME280;3848;42.016;23.098;2022-12-24T04:20:51;97145.88;;;0.33;100.00
7614;BME280;3848;42.016;23.098;2022-12-24T04:23:18;97143.47;;;0.36;100.00
7614;BME280;3848;42.016;23.098;2022-12-24T04:25:46;97136.84;;;0.38;100.00
7614;BME280;3848;42.016;23.098;2022-12-24T04:28:14;97139.75;;;0.50;100.00
7614;BME280;3848;42.016;23.098;2022-12-24T04:30:41;97143.25;;;0.55;100.00
7614;BME280;3848;42.016;23.098;2022-12-24T04:33:08;97149.84;;;0.53;100.00
7614;BME280;3848;42.016;23.098;2022-12-24T04:35:38;97148.06;;;0.49;100.00
7614;BME280;3848;42.016;23.098;2022-12-24T04:38:05;97148.91;;;0.50;100.00
7614;BME280;3848;42.016;23.098;2022-12-24T04:40:32;97159.03;;;0.54;100.00
7614;BME280;3848;42.016;23.098;2022-12-24T04:43:00;97183.38;;;0.60;100.00
7614;BME280;3848;42.016;23.098;2022-12-24T04:45:27;97189.25;;;0.62;100.00
7614;BME280;3848;42.016;23.098;2022-12-24T04:47:54;97195.13;;;0.63;100.00
7614;BME280;3848;42.016;23.098;2022-12-24T04:50:21;97201.13;;;0.68;100.00
7614;BME280;3848;42.016;23.098;2022-12-24T04:52:47;97169.75;;;0.50;100.00
7614;BME280;3848;42.016;23.098;2022-12-24T04:55:14;97199.38;;;0.65;100.00
7614;BME280;3848;42.016;23.098;2022-12-24T04:57:41;97210.13;;;0.63;100.00
7614;BME280;3848;42.016;23.098;2022-12-24T05:00:10;97170.56;;;0.24;100.00
7614;BME280;3848;42.016;23.098;2022-12-24T05:02:37;97213.84;;;0.48;100.00
7614;BME280;3848;42.016;23.098;2022-12-24T05:05:05;97224.31;;;0.38;100.00
7614;BME280;3848;42.016;23.098;2022-12-24T05:07:32;97227.38;;;0.29;100.00
7614;BME280;3848;42.016;23.098;2022-12-24T05:09:59;97217.00;;;0.19;100.00
7614;BME280;3848;42.016;23.098;2022-12-24T05:12:26;97220.91;;;0.11;100.00
7614;BME280;3848;42.016;23.098;2022-12-24T05:14:53;97211.25;;;-0.04;100.00
7614;BME280;3848;42.016;23.098;2022-12-24T05:17:21;97201.00;;;-0.12;100.00
7614;BME280;3848;42.016;23.098;2022-12-24T05:19:48;97193.66;;;-0.31;100.00
7614;BME280;3848;42.016;23.098;2022-12-24T05:22:15;97210.25;;;-0.33;100.00
7614;BME280;3848;42.016;23.098;2022-12-24T05:24:59;97214.28;;;-0.37;100.00
7614;BME280;3848;42.016;23.098;2022-12-24T05:27:43;97202.78;;;-0.55;100.00
7614;BME280;3848;42.016;23.098;2022-12-24T05:30:11;97202.91;;;-0.52;100.00
7614;BME280;3848;42.016;23.098;2022-12-24T05:32:39;97203.22;;;-0.43;100.00
7614;BME280;3848;42.016;23.098;2022-12-24T05:35:06;97210.75;;;-0.42;100.00
7614;BME280;3848;42.016;23.098;2022-12-24T05:37:33;97199.25;;;-0.38;100.00
7614;BME280;3848;42.016;23.098;2022-12-24T05:40:00;97216.09;;;-0.33;100.00
7614;BME280;3848;42.016;23.098;2022-12-24T05:42:27;97216.94;;;-0.32;100.00
7614;BME280;3848;42.016;23.098;2022-12-24T05:44:54;97224.59;;;-0.27;100.00
7614;BME280;3848;42.016;23.098;2022-12-24T05:47:20;97213.25;;;-0.19;100.00
7614;BME280;3848;42.016;23.098;2022-12-24T05:49:48;97206.91;;;-0.10;100.00
7614;BME280;3848;42.016;23.098;2022-12-24T05:52:15;97212.78;;;-0.08;100.00
7614;BME280;3848;42.016;23.098;2022-12-24T05:54:42;97016.72;;;-1.22;100.00
7614;BME280;3848;42.016;23.098;2022-12-24T05:57:09;97213.84;;;-0.01;100.00
7614;BME280;3848;42.016;23.098;2022-12-24T05:59:36;97219.91;;;0.06;100.00
7614;BME280;3848;42.016;23.098;2022-12-24T06:02:02;97218.31;;;0.08;100.00
7614;BME280;3848;42.016;23.098;2022-12-24T06:04:29;97220.31;;;0.18;100.00
7614;BME280;3848;42.016;23.098;2022-12-24T06:06:57;97215.44;;;0.21;100.00
7614;BME280;3848;42.016;23.098;2022-12-24T06:09:24;97213.03;;;0.24;100.00
7614;BME280;3848;42.016;23.098;2022-12-24T06:11:51;97219.56;;;0.20;100.00
7614;BME280;3848;42.016;23.098;2022-12-24T06:14:18;97207.56;;;0.10;100.00
7614;BME280;3848;42.016;23.098;2022-12-24T06:16:44;97231.41;;;0.01;100.00
7614;BME280;3848;42.016;23.098;2022-12-24T06:19:11;97227.19;;;-0.01;100.00
7614;BME280;3848;42.016;23.098;2022-12-24T06:21:38;97224.75;;;0.01;100.00
7614;BME280;3848;42.016;23.098;2022-12-24T06:24:07;97217.94;;;-0.03;100.00
7614;BME280;3848;42.016;23.098;2022-12-24T06:26:34;97221.72;;;0.10;100.00
7614;BME280;3848;42.016;23.098;2022-12-24T06:29:00;97224.69;;;0.23;100.00
7614;BME280;3848;42.016;23.098;2022-12-24T06:31:27;97222.47;;;0.33;100.00
7614;BME280;3848;42.016;23.098;2022-12-24T06:33:54;97227.66;;;0.39;100.00
7614;BME280;3848;42.016;23.098;2022-12-24T06:36:22;97236.25;;;0.45;100.00
7614;BME280;3848;42.016;23.098;2022-12-24T06:38:50;97228.03;;;0.49;100.00
7614;BME280;3848;42.016;23.098;2022-12-24T06:41:19;97168.03;;;0.22;100.00
7614;BME280;3848;42.016;23.098;2022-12-24T06:43:48;97212.50;;;0.59;100.00
7614;BME280;3848;42.016;23.098;2022-12-24T06:46:15;97222.78;;;0.67;100.00
7614;BME280;3848;42.016;23.098;2022-12-24T06:48:43;97171.25;;;0.45;100.00
7614;BME280;3848;42.016;23.098;2022-12-24T06:51:10;97211.44;;;0.78;100.00
7614;BME280;3848;42.016;23.098;2022-12-24T06:53:38;97215.09;;;0.88;100.00
7614;BME280;3848;42.016;23.098;2022-12-24T06:56:07;97205.03;;;0.86;100.00
7614;BME280;3848;42.016;23.098;2022-12-24T06:58:35;97217.16;;;1.01;100.00
7614;BME280;3848;42.016;23.098;2022-12-24T07:01:03;97214.13;;;1.11;100.00
7614;BME280;3848;42.016;23.098;2022-12-24T07:03:31;97159.28;;;0.89;100.00
7614;BME280;3848;42.016;23.098;2022-12-24T07:05:58;97204.38;;;1.20;100.00
7614;BME280;3848;42.016;23.098;2022-12-24T07:08:25;97207.97;;;1.29;100.00
7614;BME280;3848;42.016;23.098;2022-12-24T07:10:52;97210.69;;;1.36;100.00
7614;BME280;3848;42.016;23.098;2022-12-24T07:13:19;97208.50;;;1.47;100.00
7614;BME280;3848;42.016;23.098;2022-12-24T07:15:56;97202.81;;;1.52;100.00
7614;BME280;3848;42.016;23.098;2022-12-24T07:18:23;97209.66;;;1.58;100.00
7614;BME280;3848;42.016;23.098;2022-12-24T07:20:49;97224.13;;;1.68;100.00
7614;BME280;3848;42.016;23.098;2022-12-24T07:23:16;97155.66;;;1.38;100.00
7614;BME280;3848;42.016;23.098;2022-12-24T07:25:43;97217.84;;;1.82;100.00
7614;BME280;3848;42.016;23.098;2022-12-24T07:28:10;97212.00;;;1.83;100.00
7614;BME280;3848;42.016;23.098;2022-12-24T07:30:37;97212.91;;;1.86;100.00
7614;BME280;3848;42.016;23.098;2022-12-24T07:33:05;97212.81;;;1.82;100.00
7614;BME280;3848;42.016;23.098;2022-12-24T07:35:32;97210.09;;;1.73;100.00
7614;BME280;3848;42.016;23.098;2022-12-24T07:38:00;97221.16;;;1.81;100.00
7614;BME280;3848;42.016;23.098;2022-12-24T07:40:27;97217.72;;;1.78;100.00
7614;BME280;3848;42.016;23.098;2022-12-24T07:42:53;97224.22;;;1.71;100.00
7614;BME280;3848;42.016;23.098;2022-12-24T07:45:20;97236.78;;;1.73;100.00
7614;BME280;3848;42.016;23.098;2022-12-24T07:47:47;97233.59;;;1.78;100.00
7614;BME280;3848;42.016;23.098;2022-12-24T07:50:15;97236.22;;;1.83;100.00
7614;BME280;3848;42.016;23.098;2022-12-24T07:52:42;97226.34;;;1.88;100.00
7614;BME280;3848;42.016;23.098;2022-12-24T07:55:09;97222.31;;;1.93;100.00
7614;BME280;3848;42.016;23.098;2022-12-24T07:57:36;97223.19;;;1.95;100.00
7614;BME280;3848;42.016;23.098;2022-12-24T08:00:03;97219.84;;;1.94;100.00
7614;BME280;3848;42.016;23.098;2022-12-24T08:02:30;97235.03;;;2.00;100.00
7614;BME280;3848;42.016;23.098;2022-12-24T08:04:57;97238.38;;;2.01;100.00
7614;BME280;3848;42.016;23.098;2022-12-24T08:07:25;97250.97;;;2.04;100.00
7614;BME280;3848;42.016;23.098;2022-12-24T08:09:52;97250.50;;;2.17;100.00
7614;BME280;3848;42.016;23.098;2022-12-24T08:12:19;97259.28;;;2.33;100.00
7614;BME280;3848;42.016;23.098;2022-12-24T08:14:46;97259.41;;;2.37;100.00
7614;BME280;3848;42.016;23.098;2022-12-24T08:17:12;97253.50;;;2.35;100.00
7614;BME280;3848;42.016;23.098;2022-12-24T08:19:39;97250.09;;;2.33;100.00
7614;BME280;3848;42.016;23.098;2022-12-24T08:22:06;97258.41;;;2.31;100.00
7614;BME280;3848;42.016;23.098;2022-12-24T08:24:34;97247.59;;;2.33;100.00
7614;BME280;3848;42.016;23.098;2022-12-24T08:27:02;97262.75;;;2.38;100.00
7614;BME280;3848;42.016;23.098;2022-12-24T08:29:29;97226.44;;;2.24;100.00
7614;BME280;3848;42.016;23.098;2022-12-24T08:31:55;97241.78;;;2.34;100.00
7614;BME280;3848;42.016;23.098;2022-12-24T08:34:22;97204.19;;;2.03;100.00
7614;BME280;3848;42.016;23.098;2022-12-24T08:36:49;97247.38;;;2.26;100.00
7614;BME280;3848;42.016;23.098;2022-12-24T08:39:16;97256.50;;;2.22;100.00
7614;BME280;3848;42.016;23.098;2022-12-24T08:41:44;97276.13;;;2.07;100.00
7614;BME280;3848;42.016;23.098;2022-12-24T08:44:11;97262.66;;;2.03;100.00
7614;BME280;3848;42.016;23.098;2022-12-24T08:46:37;97241.03;;;2.07;100.00
7614;BME280;3848;42.016;23.098;2022-12-24T08:49:04;97219.63;;;2.18;100.00
7614;BME280;3848;42.016;23.098;2022-12-24T08:51:31;97213.13;;;2.26;100.00
7614;BME280;3848;42.016;23.098;2022-12-24T08:53:58;97219.72;;;2.23;100.00
7614;BME280;3848;42.016;23.098;2022-12-24T08:56:25;97210.03;;;2.03;100.00
7614;BME280;3848;42.016;23.098;2022-12-24T08:58:53;97217.53;;;2.02;100.00
7614;BME280;3848;42.016;23.098;2022-12-24T09:01:20;97190.53;;;1.92;100.00
7614;BME280;3848;42.016;23.098;2022-12-24T09:03:47;97209.19;;;2.03;100.00
7614;BME280;3848;42.016;23.098;2022-12-24T09:06:15;97189.22;;;2.06;100.00
7614;BME280;3848;42.016;23.098;2022-12-24T09:08:42;97206.22;;;2.16;100.00
7614;BME280;3848;42.016;23.098;2022-12-24T09:11:11;97216.94;;;2.10;100.00
7614;BME280;3848;42.016;23.098;2022-12-24T09:13:38;97193.59;;;2.13;100.00
7614;BME280;3848;42.016;23.098;2022-12-24T09:16:07;97202.97;;;2.20;100.00
7614;BME280;3848;42.016;23.098;2022-12-24T09:18:34;97197.38;;;2.30;100.00
7614;BME280;3848;42.016;23.098;2022-12-24T09:21:02;97194.34;;;2.43;100.00
7614;BME280;3848;42.016;23.098;2022-12-24T09:23:29;97200.19;;;2.42;100.00
7614;BME280;3848;42.016;23.098;2022-12-24T09:25:56;97187.91;;;2.53;100.00
7614;BME280;3848;42.016;23.098;2022-12-24T09:28:23;97182.28;;;2.63;100.00
7614;BME280;3848;42.016;23.098;2022-12-24T09:30:57;97179.31;;;2.78;100.00
7614;BME280;3848;42.016;23.098;2022-12-24T09:33:26;97159.50;;;2.90;100.00
7614;BME280;3848;42.016;23.098;2022-12-24T09:35:53;97169.34;;;3.19;100.00
7614;BME280;3848;42.016;23.098;2022-12-24T09:38:20;97167.25;;;3.39;100.00
7614;BME280;3848;42.016;23.098;2022-12-24T09:40:48;97161.50;;;3.44;100.00
7614;BME280;3848;42.016;23.098;2022-12-24T09:43:17;97176.84;;;3.58;100.00
7614;BME280;3848;42.016;23.098;2022-12-24T09:45:49;97184.38;;;3.58;100.00
7614;BME280;3848;42.016;23.098;2022-12-24T09:48:23;97186.09;;;3.60;100.00
7614;BME280;3848;42.016;23.098;2022-12-24T09:50:56;97183.50;;;3.56;100.00
7614;BME280;3848;42.016;23.098;2022-12-24T09:53:28;97176.72;;;3.53;100.00
7614;BME280;3848;42.016;23.098;2022-12-24T09:56:02;97171.84;;;3.59;100.00
7614;BME280;3848;42.016;23.098;2022-12-24T09:58:33;97174.63;;;3.75;100.00
7614;BME280;3848;42.016;23.098;2022-12-24T10:01:02;97171.66;;;3.94;100.00
7614;BME280;3848;42.016;23.098;2022-12-24T10:03:30;97164.13;;;3.95;100.00
7614;BME280;3848;42.016;23.098;2022-12-24T10:06:05;97154.22;;;4.02;100.00
7614;BME280;3848;42.016;23.098;2022-12-24T10:08:43;97134.19;;;4.08;100.00
7614;BME280;3848;42.016;23.098;2022-12-24T10:11:21;97164.53;;;4.17;100.00
7614;BME280;3848;42.016;23.098;2022-12-24T10:14:02;97169.56;;;4.17;100.00
7614;BME280;3848;42.016;23.098;2022-12-24T10:16:38;97157.25;;;4.34;100.00
7614;BME280;3848;42.016;23.098;2022-12-24T10:19:15;97156.25;;;4.77;100.00
7614;BME280;3848;42.016;23.098;2022-12-24T10:21:53;97150.81;;;5.04;100.00
7614;BME280;3848;42.016;23.098;2022-12-24T10:24:27;97161.00;;;5.14;100.00
7614;BME280;3848;42.016;23.098;2022-12-24T10:27:00;97156.84;;;5.18;100.00
7614;BME280;3848;42.016;23.098;2022-12-24T10:29:30;97164.53;;;5.26;100.00
7614;BME280;3848;42.016;23.098;2022-12-24T10:32:01;97161.81;;;5.12;100.00
7614;BME280;3848;42.016;23.098;2022-12-24T10:34:34;97153.47;;;5.17;100.00
7614;BME280;3848;42.016;23.098;2022-12-24T10:37:04;97151.94;;;5.26;100.00
7614;BME280;3848;42.016;23.098;2022-12-24T10:39:32;97150.84;;;5.08;100.00
7614;BME280;3848;42.016;23.098;2022-12-24T10:41:59;97140.16;;;5.23;100.00
7614;BME280;3848;42.016;23.098;2022-12-24T10:44:29;97148.94;;;5.56;100.00
7614;BME280;3848;42.016;23.098;2022-12-24T10:46:57;97140.19;;;6.00;100.00
7614;BME280;3848;42.016;23.098;2022-12-24T10:49:29;97132.34;;;6.64;100.00
7614;BME280;3848;42.016;23.098;2022-12-24T10:52:02;97131.69;;;6.91;100.00
7614;BME280;3848;42.016;23.098;2022-12-24T10:54:31;97135.09;;;6.97;100.00
7614;BME280;3848;42.016;23.098;2022-12-24T10:57:04;97133.22;;;6.67;100.00
7614;BME280;3848;42.016;23.098;2022-12-24T10:59:41;97127.09;;;6.39;100.00
7614;BME280;3848;42.016;23.098;2022-12-24T11:02:26;97125.97;;;6.05;100.00
7614;BME280;3848;42.016;23.098;2022-12-24T11:04:54;97128.31;;;5.89;100.00
7614;BME280;3848;42.016;23.098;2022-12-24T11:07:22;97129.88;;;5.82;100.00
7614;BME280;3848;42.016;23.098;2022-12-24T11:09:56;97122.56;;;6.02;100.00
7614;BME280;3848;42.016;23.098;2022-12-24T11:12:27;97120.19;;;6.17;100.00
7614;BME280;3848;42.016;23.098;2022-12-24T11:15:00;97124.31;;;6.07;100.00
7614;BME280;3848;42.016;23.098;2022-12-24T11:17:27;97119.34;;;6.18;100.00
7614;BME280;3848;42.016;23.098;2022-12-24T11:19:55;97117.69;;;6.22;100.00
7614;BME280;3848;42.016;23.098;2022-12-24T11:22:23;97130.91;;;5.93;100.00
7614;BME280;3848;42.016;23.098;2022-12-24T11:25:00;97140.75;;;5.75;100.00
7614;BME280;3848;42.016;23.098;2022-12-24T11:27:37;97127.19;;;5.64;100.00
7614;BME280;3848;42.016;23.098;2022-12-24T11:30:29;97114.53;;;5.61;100.00
7614;BME280;3848;42.016;23.098;2022-12-24T11:33:18;97111.28;;;5.68;100.00
7614;BME280;3848;42.016;23.098;2022-12-24T11:35:48;97115.56;;;5.78;100.00
7614;BME280;3848;42.016;23.098;2022-12-24T11:38:19;97090.38;;;5.79;100.00
7614;BME280;3848;42.016;23.098;2022-12-24T11:40:50;97089.00;;;6.07;100.00
7614;BME280;3848;42.016;23.098;2022-12-24T11:43:23;97063.03;;;6.19;100.00
7614;BME280;3848;42.016;23.098;2022-12-24T11:45:51;97079.13;;;6.35;100.00
7614;BME280;3848;42.016;23.098;2022-12-24T11:48:27;97082.53;;;6.43;100.00
7614;BME280;3848;42.016;23.098;2022-12-24T11:50:58;97080.00;;;6.41;100.00
7614;BME280;3848;42.016;23.098;2022-12-24T11:53:30;97075.81;;;6.45;100.00
7614;BME280;3848;42.016;23.098;2022-12-24T11:56:06;97027.72;;;6.24;100.00
7614;BME280;3848;42.016;23.098;2022-12-24T11:58:37;97069.22;;;6.59;100.00
7614;BME280;3848;42.016;23.098;2022-12-24T12:01:13;97055.81;;;6.66;100.00
7614;BME280;3848;42.016;23.098;2022-12-24T12:03:46;97058.25;;;6.57;100.00
7614;BME280;3848;42.016;23.098;2022-12-24T12:06:22;97061.63;;;6.61;100.00
7614;BME280;3848;42.016;23.098;2022-12-24T12:08:54;97068.44;;;6.69;100.00
7614;BME280;3848;42.016;23.098;2022-12-24T12:11:25;97066.72;;;6.65;100.00
7614;BME280;3848;42.016;23.098;2022-12-24T12:13:54;97072.69;;;6.81;100.00
7614;BME280;3848;42.016;23.098;2022-12-24T12:16:25;97076.94;;;6.87;100.00
7614;BME280;3848;42.016;23.098;2022-12-24T12:18:59;97073.66;;;7.04;100.00
7614;BME280;3848;42.016;23.098;2022-12-24T12:21:33;97074.56;;;7.13;100.00
7614;BME280;3848;42.016;23.098;2022-12-24T12:24:03;97094.78;;;7.19;100.00
7614;BME280;3848;42.016;23.098;2022-12-24T12:26:34;97096.41;;;7.06;100.00
7614;BME280;3848;42.016;23.098;2022-12-24T12:29:05;97096.47;;;7.15;100.00
7614;BME280;3848;42.016;23.098;2022-12-24T12:31:41;97090.59;;;7.19;100.00
7614;BME280;3848;42.016;23.098;2022-12-24T12:34:15;97092.34;;;7.31;100.00
7614;BME280;3848;42.016;23.098;2022-12-24T12:36:45;97086.47;;;7.44;100.00
7614;BME280;3848;42.016;23.098;2022-12-24T12:39:14;97088.22;;;7.59;100.00
7614;BME280;3848;42.016;23.098;2022-12-24T12:41:50;97084.84;;;7.60;100.00
7614;BME280;3848;42.016;23.098;2022-12-24T12:44:35;97095.84;;;7.71;100.00
7614;BME280;3848;42.016;23.098;2022-12-24T12:47:19;97104.28;;;7.73;100.00
7614;BME280;3848;42.016;23.098;2022-12-24T12:49:58;97093.31;;;7.76;100.00
7614;BME280;3848;42.016;23.098;2022-12-24T12:52:42;97100.91;;;7.79;100.00
7614;BME280;3848;42.016;23.098;2022-12-24T12:55:21;97099.22;;;7.75;100.00
7614;BME280;3848;42.016;23.098;2022-12-24T12:57:52;97094.97;;;7.68;100.00
7614;BME280;3848;42.016;23.098;2022-12-24T13:00:21;97095.00;;;7.78;100.00
7614;BME280;3848;42.016;23.098;2022-12-24T13:03:05;97099.22;;;7.79;100.00
7614;BME280;3848;42.016;23.098;2022-12-24T13:05:59;97098.38;;;7.86;100.00
7614;BME280;3848;42.016;23.098;2022-12-24T13:08:58;97095.03;;;7.98;100.00
7614;BME280;3848;42.016;23.098;2022-12-24T13:11:45;97089.13;;;8.01;100.00
7614;BME280;3848;42.016;23.098;2022-12-24T13:14:46;97082.38;;;8.09;100.00
7614;BME280;3848;42.016;23.098;2022-12-24T13:17:37;97088.31;;;8.15;100.00
7614;BME280;3848;42.016;23.098;2022-12-24T13:20:17;97083.25;;;8.14;100.00
7614;BME280;3848;42.016;23.098;2022-12-24T13:22:50;97068.06;;;8.17;100.00
7614;BME280;3848;42.016;23.098;2022-12-24T13:25:22;97078.19;;;8.23;100.00
7614;BME280;3848;42.016;23.098;2022-12-24T13:27:51;97077.34;;;8.33;100.00
7614;BME280;3848;42.016;23.098;2022-12-24T13:30:36;97080.75;;;8.37;100.00